Key West, FL

14:21 EST le 01 Mars 2015 (GMT -0500)
Key West Naval Air Station | Change Station
CLOSE
Current Station
Aéroport
Location: Key West NAF,
Altitude: 7 ft
Stations météo à proximité

Alt. 7 ft 24.58 °N, 81.69 °W | Updated 28 minutes ago

Ciel dégagé
Ciel dégagé
81 ° F
Paraît 84 ° F
N
16
Vent Variable Vent de Est

Aujourd'hui
Haut(e) -- | Bas -- ° F
--% Risque de précip.
Hier
Haut(e) -- | Bas -- ° F
Precip. -- pouce
6:49 AM 6:28 PM
Lune gibbeuse croissante, 86% visible
Pression 30.23 pouce
Visibilité 10.0 Miles terrestres
Nuages Peu 1500 ft
Peu 25000 ft
indice de chaleur 84 ° F
Point de rosée 70 ° F
Humidité 69%
Précipitations 0.00 pouce
Profondeur de la couche neigeuse Non disponible.
UV 10 sur 12
Pollen 9.90 sur 12
Qualité de l'air Non disponible.
Flu Activity Non disponible.
METAR KNQX 011853Z 10014KT 10SM FEW015 FEW250 27/21 A3023 RMK AO2 SLP235 T02720211 $

More Conditions Fewer Conditions

Pression 30.23 pouce
Visibilité 10.0 Miles terrestres
Nuages Peu 1500 ft
Peu 25000 ft
indice de chaleur 84 ° F
Point de rosée 70 ° F
Humidité 69%
Précipitations 0.00 pouce
Profondeur de la couche neigeuse Non disponible.
UV 10 sur 12
Pollen 9.90 sur 12
Qualité de l'air Non disponible.
Flu Activity Non disponible.
METAR KNQX 011853Z 10014KT 10SM FEW015 FEW250 27/21 A3023 RMK AO2 SLP235 T02720211 $

More Conditions Fewer Conditions

10-Day Weather Forecast

Almanac

Astronomie

Mar. 01, 2015 Lever Coucher
Temps réel
Crépuscule civil
Crépuscule nautique
Crépuscule astronomique
Lune
Durée de lumière visible
Longueur du jour
Tomorrow will be .
, % of the Moon is Illuminated

Extrêmes aujourd'hui

State Highs State Lows

Community

WunderPhotos

Upload Photos

1,801,491 Photos téléchargées !

WunderBlogs® & News

Nearby

Qualité de l'air

  Qualité de l'air Indice de la qualité de l'air Polluant
Not available.

Épaisseur de neige

Station Depth Altitude

Activité sismique

Ville Distance Mag. Time & Date
Minimum magnitude displayed is 2.5.

Températures des eaux côtières

Lieu Température

Stations météo à proximité